BIENTÔT MET'MAP
version 2.0 !

Prévue avant fin octobre,
la nouvelle version sera
plus belle, plus complète
et hébergée sur un serveur
3 fois plus puissant...
et toujours gratuite !


Pas compatible ?
Essayez la version Mobile !

SE CONNECTER : | S'inscrire | Disclaimer | Découvrir Orbifly |
Code OACI :

TAF - LFOW Saint Quentin Roupy - 25 Feb 2020 17:24 UTC
Data Sources :     NOAA   


- Altitude de l'aérodrome : 325 ft
- Pas de NOTAMs connus.


LFOW - Saint Quentin Roupy

Dernier METAR connu : 0000/00/00 M :17 TAF LSMM 170925Z 1710/1816 VRB03KT 9999 FEW010 BKN050 BKN080 PROB40 TEMPO 1710/1717 SHRA PROB30 1800/1806 3000 MIFG NSC
PAS DE TAF


MET'MAP, la Météo Aéronautique d'un coup d'oeil ! - Copyright ORBIFLY Décembre 2007

Développement & Programmation : Alexandra Zaïnal
Co-Développement : Marc-Olivier Méhu
Soutien technique & logistique : Manuel Goepfert
Conception & Financement : Baudouin d'Aumeries